This is the latest recevied weather packets stored in our database for station/object K3SV. If no packets are shown the sender has not sent any weather packets the latest 10 day(s).
| Time | Temp. | Humidity | Pressure | Rain* | Wind** | Luminosity | Snow |
|---|---|---|---|---|---|---|---|
| 1777496754 | 31.67° C | 50% | 1011.9 hPa | 0 mm | - | 387 W/m² | - |
| 1777496450 | 31.67° C | 49% | 1012 hPa | 0 mm | - | 393 W/m² | - |
| 1777496147 | 31.67° C | 47% | 1012 hPa | 0 mm | - | 419 W/m² | - |
| 1777495843 | 31.11° C | 47% | 1012 hPa | 0 mm | - | 431 W/m² | - |
| 1777495540 | 31.67° C | 47% | 1012.3 hPa | 0 mm | - | 448 W/m² | - |
| 1777495235 | 32.22° C | 45% | 1012.5 hPa | 0 mm | - | 459 W/m² | - |
| 1777494933 | 31.11° C | 47% | 1012.2 hPa | 0 mm | - | 483 W/m² | - |
| 1777494630 | 31.67° C | 45% | 1012.5 hPa | 0 mm | - | 490 W/m² | - |
| 1777494327 | 31.67° C | 46% | 1012.8 hPa | 0 mm | - | 505 W/m² | - |
| 1777494023 | 31.67° C | 45% | 1012.7 hPa | 0 mm | - | 515 W/m² | - |
| 1777493722 | 32.22° C | 44% | 1012.7 hPa | 0 mm | - | 532 W/m² | - |
| 1777493420 | 32.22° C | 44% | 1013 hPa | 0 mm | - | 544 W/m² | - |
| 1777493115 | 32.78° C | 45% | 1013.1 hPa | 0 mm | - | 598 W/m² | - |
| 1777492812 | 32.22° C | 46% | 1013.1 hPa | 0 mm | - | 592 W/m² | - |
| 1777492508 | 32.78° C | 46% | 1013.2 hPa | 0 mm | - | 404 W/m² | - |
| 1777492204 | 32.22° C | 45% | 1013.2 hPa | 0 mm | - | 533 W/m² | - |
| 1777491901 | 31.67° C | 45% | 1013.3 hPa | 0 mm | - | 633 W/m² | - |
| 1777491597 | 31.67° C | 46% | 1013.6 hPa | 0 mm | - | 642 W/m² | - |
| 1777491295 | 31.67° C | 47% | 1013.8 hPa | 0 mm | - | 577 W/m² | - |
| 1777490992 | 31.67° C | 46% | 1013.9 hPa | 0 mm | - | 654 W/m² | - |
| 1777490687 | 31.67° C | 45% | 1013.9 hPa | 0 mm | - | 145 W/m² | - |
| 1777490383 | 32.22° C | 46% | 1014.2 hPa | 0 mm | - | 665 W/m² | - |
| 1777490081 | 32.22° C | 47% | 1014.2 hPa | 0 mm | - | 680 W/m² | - |
| 1777489778 | 33.33° C | 44% | 1014.2 hPa | 0 mm | - | 678 W/m² | - |
| 1777489476 | 32.22° C | 46% | 1014.2 hPa | 0 mm | - | 681 W/m² | - |
* Rain latest hour (hover to see other rain measurements)
** Current wind speed in m/s (hover to see current wind gust speed)